sensor_id;sensor_type;location;lat;lon;timestamp;P1;durP1;ratioP1;P2;durP2;ratioP2
11344;SDS011;5727;42.600;23.028;2022-07-22T00:00:59;16.80;;;6.87;;
11344;SDS011;5727;42.600;23.028;2022-07-22T00:03:26;13.17;;;6.80;;
11344;SDS011;5727;42.600;23.028;2022-07-22T00:05:53;16.27;;;6.73;;
11344;SDS011;5727;42.600;23.028;2022-07-22T00:08:20;13.17;;;7.20;;
11344;SDS011;5727;42.600;23.028;2022-07-22T00:10:48;9.20;;;6.17;;
11344;SDS011;5727;42.600;23.028;2022-07-22T00:13:15;15.27;;;6.10;;
11344;SDS011;5727;42.600;23.028;2022-07-22T00:15:42;17.53;;;6.40;;
11344;SDS011;5727;42.600;23.028;2022-07-22T00:18:09;11.27;;;6.50;;
11344;SDS011;5727;42.600;23.028;2022-07-22T00:20:36;14.93;;;5.70;;
11344;SDS011;5727;42.600;23.028;2022-07-22T00:23:03;14.57;;;6.17;;
11344;SDS011;5727;42.600;23.028;2022-07-22T00:25:30;15.23;;;5.90;;
11344;SDS011;5727;42.600;23.028;2022-07-22T00:27:58;14.93;;;6.23;;
11344;SDS011;5727;42.600;23.028;2022-07-22T00:30:25;12.47;;;6.07;;
11344;SDS011;5727;42.600;23.028;2022-07-22T00:32:52;13.73;;;6.20;;
11344;SDS011;5727;42.600;23.028;2022-07-22T00:35:19;13.97;;;6.43;;
11344;SDS011;5727;42.600;23.028;2022-07-22T00:37:46;14.10;;;6.90;;
11344;SDS011;5727;42.600;23.028;2022-07-22T00:40:13;14.47;;;7.27;;
11344;SDS011;5727;42.600;23.028;2022-07-22T00:42:40;11.90;;;7.03;;
11344;SDS011;5727;42.600;23.028;2022-07-22T00:45:09;13.03;;;7.50;;
11344;SDS011;5727;42.600;23.028;2022-07-22T00:47:36;12.70;;;7.63;;
11344;SDS011;5727;42.600;23.028;2022-07-22T00:50:04;12.93;;;7.90;;
11344;SDS011;5727;42.600;23.028;2022-07-22T00:52:32;15.43;;;7.97;;
11344;SDS011;5727;42.600;23.028;2022-07-22T00:55:00;12.37;;;7.63;;
11344;SDS011;5727;42.600;23.028;2022-07-22T00:57:28;13.93;;;7.60;;
11344;SDS011;5727;42.600;23.028;2022-07-22T00:59:55;14.07;;;7.57;;
11344;SDS011;5727;42.600;23.028;2022-07-22T01:02:24;12.30;;;7.30;;
11344;SDS011;5727;42.600;23.028;2022-07-22T01:04:51;14.47;;;7.57;;
11344;SDS011;5727;42.600;23.028;2022-07-22T01:07:18;14.80;;;8.00;;
11344;SDS011;5727;42.600;23.028;2022-07-22T01:09:45;12.80;;;7.57;;
11344;SDS011;5727;42.600;23.028;2022-07-22T01:12:12;14.97;;;7.63;;
11344;SDS011;5727;42.600;23.028;2022-07-22T01:14:42;9.73;;;6.73;;
11344;SDS011;5727;42.600;23.028;2022-07-22T01:17:09;17.10;;;6.97;;
11344;SDS011;5727;42.600;23.028;2022-07-22T01:19:38;15.17;;;7.03;;
11344;SDS011;5727;42.600;23.028;2022-07-22T01:22:06;14.53;;;7.17;;
11344;SDS011;5727;42.600;23.028;2022-07-22T01:24:33;10.70;;;7.13;;
11344;SDS011;5727;42.600;23.028;2022-07-22T01:27:00;10.73;;;5.90;;
11344;SDS011;5727;42.600;23.028;2022-07-22T01:29:28;12.03;;;6.97;;
11344;SDS011;5727;42.600;23.028;2022-07-22T01:31:55;12.83;;;6.83;;
11344;SDS011;5727;42.600;23.028;2022-07-22T01:34:23;9.50;;;5.83;;
11344;SDS011;5727;42.600;23.028;2022-07-22T01:36:50;10.00;;;6.00;;
11344;SDS011;5727;42.600;23.028;2022-07-22T01:39:19;13.10;;;6.87;;
11344;SDS011;5727;42.600;23.028;2022-07-22T01:41:46;15.90;;;6.87;;
11344;SDS011;5727;42.600;23.028;2022-07-22T01:44:13;17.00;;;6.70;;
11344;SDS011;5727;42.600;23.028;2022-07-22T01:46:40;12.50;;;7.43;;
11344;SDS011;5727;42.600;23.028;2022-07-22T01:49:07;13.07;;;6.73;;
11344;SDS011;5727;42.600;23.028;2022-07-22T01:51:34;17.10;;;7.63;;
11344;SDS011;5727;42.600;23.028;2022-07-22T01:54:01;15.53;;;7.57;;
11344;SDS011;5727;42.600;23.028;2022-07-22T01:56:29;14.70;;;6.70;;
11344;SDS011;5727;42.600;23.028;2022-07-22T01:58:56;14.57;;;7.30;;
11344;SDS011;5727;42.600;23.028;2022-07-22T02:01:23;13.87;;;7.37;;
11344;SDS011;5727;42.600;23.028;2022-07-22T02:03:50;13.80;;;7.30;;
11344;SDS011;5727;42.600;23.028;2022-07-22T02:06:17;11.93;;;7.33;;
11344;SDS011;5727;42.600;23.028;2022-07-22T02:08:44;14.90;;;6.97;;
11344;SDS011;5727;42.600;23.028;2022-07-22T02:11:11;10.03;;;6.30;;
11344;SDS011;5727;42.600;23.028;2022-07-22T02:13:39;10.50;;;6.70;;
11344;SDS011;5727;42.600;23.028;2022-07-22T02:16:06;11.50;;;6.50;;
11344;SDS011;5727;42.600;23.028;2022-07-22T02:18:33;12.47;;;7.03;;
11344;SDS011;5727;42.600;23.028;2022-07-22T02:21:00;10.47;;;6.40;;
11344;SDS011;5727;42.600;23.028;2022-07-22T02:23:27;10.67;;;6.77;;
11344;SDS011;5727;42.600;23.028;2022-07-22T02:25:54;12.77;;;7.43;;
11344;SDS011;5727;42.600;23.028;2022-07-22T02:28:21;17.80;;;7.00;;
11344;SDS011;5727;42.600;23.028;2022-07-22T02:30:49;11.37;;;6.73;;
11344;SDS011;5727;42.600;23.028;2022-07-22T02:33:16;13.80;;;7.30;;
11344;SDS011;5727;42.600;23.028;2022-07-22T02:35:43;14.67;;;7.53;;
11344;SDS011;5727;42.600;23.028;2022-07-22T02:38:10;16.37;;;6.73;;
11344;SDS011;5727;42.600;23.028;2022-07-22T02:40:37;21.97;;;8.37;;
11344;SDS011;5727;42.600;23.028;2022-07-22T02:43:04;18.07;;;8.57;;
11344;SDS011;5727;42.600;23.028;2022-07-22T02:45:32;22.77;;;8.07;;
11344;SDS011;5727;42.600;23.028;2022-07-22T02:48:01;20.50;;;8.60;;
11344;SDS011;5727;42.600;23.028;2022-07-22T02:50:28;18.03;;;7.60;;
11344;SDS011;5727;42.600;23.028;2022-07-22T02:52:55;21.50;;;9.37;;
11344;SDS011;5727;42.600;23.028;2022-07-22T02:55:22;22.63;;;8.60;;
11344;SDS011;5727;42.600;23.028;2022-07-22T02:57:49;23.10;;;8.00;;
11344;SDS011;5727;42.600;23.028;2022-07-22T03:00:16;19.70;;;8.17;;
11344;SDS011;5727;42.600;23.028;2022-07-22T03:02:43;22.43;;;8.03;;
11344;SDS011;5727;42.600;23.028;2022-07-22T03:05:12;17.83;;;7.50;;
11344;SDS011;5727;42.600;23.028;2022-07-22T03:07:39;15.87;;;8.47;;
11344;SDS011;5727;42.600;23.028;2022-07-22T03:10:06;15.30;;;9.03;;
11344;SDS011;5727;42.600;23.028;2022-07-22T03:12:34;21.07;;;9.40;;
11344;SDS011;5727;42.600;23.028;2022-07-22T03:15:01;16.67;;;8.77;;
11344;SDS011;5727;42.600;23.028;2022-07-22T03:17:28;22.30;;;9.20;;
11344;SDS011;5727;42.600;23.028;2022-07-22T03:20:00;19.57;;;8.63;;
11344;SDS011;5727;42.600;23.028;2022-07-22T03:22:30;15.10;;;8.97;;
11344;SDS011;5727;42.600;23.028;2022-07-22T03:24:57;18.93;;;8.67;;
11344;SDS011;5727;42.600;23.028;2022-07-22T03:27:24;15.93;;;8.83;;
11344;SDS011;5727;42.600;23.028;2022-07-22T03:29:51;19.90;;;8.97;;
11344;SDS011;5727;42.600;23.028;2022-07-22T03:32:18;14.97;;;8.43;;
11344;SDS011;5727;42.600;23.028;2022-07-22T03:34:45;16.80;;;8.83;;
11344;SDS011;5727;42.600;23.028;2022-07-22T03:37:12;15.70;;;8.80;;
11344;SDS011;5727;42.600;23.028;2022-07-22T03:39:43;17.57;;;8.63;;
11344;SDS011;5727;42.600;23.028;2022-07-22T03:42:10;14.83;;;8.70;;
11344;SDS011;5727;42.600;23.028;2022-07-22T03:44:37;16.13;;;8.73;;
11344;SDS011;5727;42.600;23.028;2022-07-22T03:47:04;17.27;;;8.20;;
11344;SDS011;5727;42.600;23.028;2022-07-22T03:49:31;15.47;;;8.63;;
11344;SDS011;5727;42.600;23.028;2022-07-22T03:51:58;17.70;;;9.20;;
11344;SDS011;5727;42.600;23.028;2022-07-22T03:54:25;16.13;;;8.33;;
11344;SDS011;5727;42.600;23.028;2022-07-22T03:56:53;21.70;;;8.90;;
11344;SDS011;5727;42.600;23.028;2022-07-22T03:59:20;19.77;;;8.67;;
11344;SDS011;5727;42.600;23.028;2022-07-22T04:01:47;22.10;;;8.57;;
11344;SDS011;5727;42.600;23.028;2022-07-22T04:04:14;15.73;;;8.80;;
11344;SDS011;5727;42.600;23.028;2022-07-22T04:06:41;19.37;;;9.30;;
11344;SDS011;5727;42.600;23.028;2022-07-22T04:09:10;19.03;;;9.50;;
11344;SDS011;5727;42.600;23.028;2022-07-22T04:11:37;21.83;;;9.90;;
11344;SDS011;5727;42.600;23.028;2022-07-22T04:14:05;13.90;;;8.20;;
11344;SDS011;5727;42.600;23.028;2022-07-22T04:16:32;32.67;;;10.07;;
11344;SDS011;5727;42.600;23.028;2022-07-22T04:19:00;18.37;;;8.23;;
11344;SDS011;5727;42.600;23.028;2022-07-22T04:21:27;16.63;;;8.47;;
11344;SDS011;5727;42.600;23.028;2022-07-22T04:23:56;18.30;;;8.77;;
11344;SDS011;5727;42.600;23.028;2022-07-22T04:26:23;19.47;;;9.03;;
11344;SDS011;5727;42.600;23.028;2022-07-22T04:28:50;14.93;;;9.03;;
11344;SDS011;5727;42.600;23.028;2022-07-22T04:31:18;19.03;;;8.77;;
11344;SDS011;5727;42.600;23.028;2022-07-22T04:33:45;14.27;;;8.67;;
11344;SDS011;5727;42.600;23.028;2022-07-22T04:36:12;17.07;;;8.70;;
11344;SDS011;5727;42.600;23.028;2022-07-22T04:38:39;18.20;;;9.27;;
11344;SDS011;5727;42.600;23.028;2022-07-22T04:41:06;15.43;;;8.80;;
11344;SDS011;5727;42.600;23.028;2022-07-22T04:43:33;17.97;;;8.73;;
11344;SDS011;5727;42.600;23.028;2022-07-22T04:46:00;22.10;;;8.83;;
11344;SDS011;5727;42.600;23.028;2022-07-22T04:48:30;15.23;;;7.97;;
11344;SDS011;5727;42.600;23.028;2022-07-22T04:50:58;13.40;;;7.87;;
11344;SDS011;5727;42.600;23.028;2022-07-22T04:53:26;13.20;;;8.07;;
11344;SDS011;5727;42.600;23.028;2022-07-22T04:55:53;11.10;;;7.83;;
11344;SDS011;5727;42.600;23.028;2022-07-22T04:58:20;18.03;;;8.30;;
11344;SDS011;5727;42.600;23.028;2022-07-22T05:00:47;15.53;;;8.13;;
11344;SDS011;5727;42.600;23.028;2022-07-22T05:03:14;17.80;;;8.20;;
11344;SDS011;5727;42.600;23.028;2022-07-22T05:05:43;19.00;;;8.27;;
11344;SDS011;5727;42.600;23.028;2022-07-22T05:08:11;13.20;;;8.10;;
11344;SDS011;5727;42.600;23.028;2022-07-22T05:10:38;13.43;;;8.30;;
11344;SDS011;5727;42.600;23.028;2022-07-22T05:13:04;17.40;;;8.37;;
11344;SDS011;5727;42.600;23.028;2022-07-22T05:15:32;23.23;;;8.20;;
11344;SDS011;5727;42.600;23.028;2022-07-22T05:17:58;18.20;;;8.47;;
11344;SDS011;5727;42.600;23.028;2022-07-22T05:20:25;18.17;;;8.17;;
11344;SDS011;5727;42.600;23.028;2022-07-22T05:22:54;19.93;;;8.37;;
11344;SDS011;5727;42.600;23.028;2022-07-22T05:25:21;15.63;;;7.57;;
11344;SDS011;5727;42.600;23.028;2022-07-22T05:27:51;16.10;;;7.40;;
11344;SDS011;5727;42.600;23.028;2022-07-22T05:30:19;16.97;;;7.50;;
11344;SDS011;5727;42.600;23.028;2022-07-22T05:32:46;14.70;;;8.67;;
11344;SDS011;5727;42.600;23.028;2022-07-22T05:35:13;14.57;;;7.43;;
11344;SDS011;5727;42.600;23.028;2022-07-22T05:37:39;17.40;;;8.17;;
11344;SDS011;5727;42.600;23.028;2022-07-22T05:40:09;19.03;;;8.03;;
11344;SDS011;5727;42.600;23.028;2022-07-22T05:42:36;19.50;;;8.03;;
11344;SDS011;5727;42.600;23.028;2022-07-22T05:45:03;22.83;;;9.70;;
11344;SDS011;5727;42.600;23.028;2022-07-22T05:47:31;21.43;;;8.87;;
11344;SDS011;5727;42.600;23.028;2022-07-22T05:49:58;19.37;;;9.07;;
11344;SDS011;5727;42.600;23.028;2022-07-22T05:52:24;18.70;;;8.60;;
11344;SDS011;5727;42.600;23.028;2022-07-22T05:54:51;18.57;;;8.20;;
11344;SDS011;5727;42.600;23.028;2022-07-22T05:57:20;21.40;;;8.13;;
11344;SDS011;5727;42.600;23.028;2022-07-22T05:59:47;16.90;;;8.50;;
11344;SDS011;5727;42.600;23.028;2022-07-22T06:02:14;20.07;;;8.57;;
11344;SDS011;5727;42.600;23.028;2022-07-22T06:04:41;21.53;;;8.33;;
11344;SDS011;5727;42.600;23.028;2022-07-22T06:07:08;19.20;;;8.57;;
11344;SDS011;5727;42.600;23.028;2022-07-22T06:09:35;17.50;;;8.23;;
11344;SDS011;5727;42.600;23.028;2022-07-22T06:12:02;18.33;;;7.50;;
11344;SDS011;5727;42.600;23.028;2022-07-22T06:14:31;20.90;;;7.60;;
11344;SDS011;5727;42.600;23.028;2022-07-22T06:16:58;16.70;;;6.90;;
11344;SDS011;5727;42.600;23.028;2022-07-22T06:19:24;15.93;;;7.23;;
11344;SDS011;5727;42.600;23.028;2022-07-22T06:21:53;13.93;;;7.60;;
11344;SDS011;5727;42.600;23.028;2022-07-22T06:24:20;11.23;;;6.70;;
11344;SDS011;5727;42.600;23.028;2022-07-22T06:26:47;14.53;;;6.77;;
11344;SDS011;5727;42.600;23.028;2022-07-22T06:29:14;14.40;;;6.87;;
11344;SDS011;5727;42.600;23.028;2022-07-22T06:31:43;13.73;;;6.43;;
11344;SDS011;5727;42.600;23.028;2022-07-22T06:34:10;13.77;;;6.03;;
11344;SDS011;5727;42.600;23.028;2022-07-22T06:36:36;15.93;;;6.13;;
11344;SDS011;5727;42.600;23.028;2022-07-22T06:39:03;13.17;;;7.00;;
11344;SDS011;5727;42.600;23.028;2022-07-22T06:41:31;13.23;;;6.40;;
11344;SDS011;5727;42.600;23.028;2022-07-22T06:43:58;14.87;;;6.37;;
11344;SDS011;5727;42.600;23.028;2022-07-22T06:46:25;15.17;;;6.50;;
11344;SDS011;5727;42.600;23.028;2022-07-22T06:48:53;15.23;;;6.63;;
11344;SDS011;5727;42.600;23.028;2022-07-22T06:51:20;8.70;;;5.33;;
11344;SDS011;5727;42.600;23.028;2022-07-22T06:53:49;9.83;;;5.07;;
11344;SDS011;5727;42.600;23.028;2022-07-22T06:56:16;9.10;;;4.73;;
11344;SDS011;5727;42.600;23.028;2022-07-22T06:58:43;10.20;;;4.47;;
11344;SDS011;5727;42.600;23.028;2022-07-22T07:01:10;10.07;;;4.73;;
11344;SDS011;5727;42.600;23.028;2022-07-22T07:03:37;12.53;;;5.00;;
11344;SDS011;5727;42.600;23.028;2022-07-22T07:06:08;12.77;;;5.60;;
11344;SDS011;5727;42.600;23.028;2022-07-22T07:08:36;9.50;;;4.33;;
11344;SDS011;5727;42.600;23.028;2022-07-22T07:11:03;9.60;;;5.23;;
11344;SDS011;5727;42.600;23.028;2022-07-22T07:13:31;15.63;;;5.50;;
11344;SDS011;5727;42.600;23.028;2022-07-22T07:15:59;8.57;;;4.50;;
11344;SDS011;5727;42.600;23.028;2022-07-22T07:18:26;11.00;;;4.77;;
11344;SDS011;5727;42.600;23.028;2022-07-22T07:20:53;9.60;;;4.53;;
11344;SDS011;5727;42.600;23.028;2022-07-22T07:23:21;10.27;;;4.63;;
11344;SDS011;5727;42.600;23.028;2022-07-22T07:25:48;9.50;;;4.73;;
11344;SDS011;5727;42.600;23.028;2022-07-22T07:28:16;11.00;;;4.83;;
11344;SDS011;5727;42.600;23.028;2022-07-22T07:30:48;8.97;;;4.63;;
11344;SDS011;5727;42.600;23.028;2022-07-22T07:33:16;11.70;;;5.00;;
11344;SDS011;5727;42.600;23.028;2022-07-22T07:35:43;10.17;;;4.43;;
11344;SDS011;5727;42.600;23.028;2022-07-22T07:38:14;6.33;;;3.93;;
11344;SDS011;5727;42.600;23.028;2022-07-22T07:40:43;11.37;;;3.63;;
11344;SDS011;5727;42.600;23.028;2022-07-22T07:43:10;5.40;;;3.17;;
11344;SDS011;5727;42.600;23.028;2022-07-22T07:45:37;8.23;;;3.17;;
11344;SDS011;5727;42.600;23.028;2022-07-22T07:48:06;5.47;;;3.40;;
11344;SDS011;5727;42.600;23.028;2022-07-22T07:50:33;7.27;;;3.50;;
11344;SDS011;5727;42.600;23.028;2022-07-22T07:53:01;5.23;;;2.90;;
11344;SDS011;5727;42.600;23.028;2022-07-22T07:55:28;5.13;;;2.93;;
11344;SDS011;5727;42.600;23.028;2022-07-22T07:58:05;5.70;;;3.33;;
11344;SDS011;5727;42.600;23.028;2022-07-22T08:00:34;8.00;;;3.43;;
11344;SDS011;5727;42.600;23.028;2022-07-22T08:03:09;7.93;;;3.17;;
11344;SDS011;5727;42.600;23.028;2022-07-22T08:05:54;6.87;;;3.17;;
11344;SDS011;5727;42.600;23.028;2022-07-22T08:08:23;5.90;;;3.17;;
11344;SDS011;5727;42.600;23.028;2022-07-22T08:10:52;4.47;;;2.70;;
11344;SDS011;5727;42.600;23.028;2022-07-22T08:13:33;6.70;;;2.83;;
11344;SDS011;5727;42.600;23.028;2022-07-22T08:16:05;6.37;;;2.73;;
11344;SDS011;5727;42.600;23.028;2022-07-22T08:18:35;6.97;;;3.33;;
11344;SDS011;5727;42.600;23.028;2022-07-22T08:21:04;9.23;;;3.23;;
11344;SDS011;5727;42.600;23.028;2022-07-22T08:23:31;6.87;;;2.80;;
11344;SDS011;5727;42.600;23.028;2022-07-22T08:25:58;10.17;;;3.07;;
11344;SDS011;5727;42.600;23.028;2022-07-22T08:28:27;5.70;;;3.00;;
11344;SDS011;5727;42.600;23.028;2022-07-22T08:30:58;5.67;;;2.90;;
11344;SDS011;5727;42.600;23.028;2022-07-22T08:33:25;4.57;;;2.20;;
11344;SDS011;5727;42.600;23.028;2022-07-22T08:36:02;3.93;;;2.20;;
11344;SDS011;5727;42.600;23.028;2022-07-22T08:38:30;7.27;;;2.83;;
11344;SDS011;5727;42.600;23.028;2022-07-22T08:40:58;5.37;;;2.00;;
11344;SDS011;5727;42.600;23.028;2022-07-22T08:43:27;5.30;;;2.50;;
11344;SDS011;5727;42.600;23.028;2022-07-22T08:45:57;10.67;;;2.83;;
11344;SDS011;5727;42.600;23.028;2022-07-22T08:48:26;5.93;;;2.50;;
11344;SDS011;5727;42.600;23.028;2022-07-22T08:51:06;3.15;;;2.10;;
11344;SDS011;5727;42.600;23.028;2022-07-22T08:53:35;5.95;;;2.47;;
11344;SDS011;5727;42.600;23.028;2022-07-22T08:56:04;5.07;;;2.63;;
11344;SDS011;5727;42.600;23.028;2022-07-22T08:58:34;4.30;;;1.98;;
11344;SDS011;5727;42.600;23.028;2022-07-22T09:01:09;6.03;;;2.22;;
11344;SDS011;5727;42.600;23.028;2022-07-22T09:03:43;4.13;;;2.33;;
11344;SDS011;5727;42.600;23.028;2022-07-22T09:06:12;5.18;;;2.10;;
11344;SDS011;5727;42.600;23.028;2022-07-22T09:08:50;8.73;;;2.67;;
11344;SDS011;5727;42.600;23.028;2022-07-22T09:11:19;5.15;;;2.15;;
11344;SDS011;5727;42.600;23.028;2022-07-22T09:13:47;5.22;;;2.50;;
11344;SDS011;5727;42.600;23.028;2022-07-22T09:16:20;5.05;;;2.47;;
11344;SDS011;5727;42.600;23.028;2022-07-22T09:19:05;2.83;;;2.13;;
11344;SDS011;5727;42.600;23.028;2022-07-22T09:21:32;5.20;;;2.60;;
11344;SDS011;5727;42.600;23.028;2022-07-22T09:24:00;6.30;;;2.55;;
11344;SDS011;5727;42.600;23.028;2022-07-22T09:26:31;7.68;;;2.10;;
11344;SDS011;5727;42.600;23.028;2022-07-22T09:28:59;7.00;;;2.80;;
11344;SDS011;5727;42.600;23.028;2022-07-22T09:31:30;3.60;;;2.42;;
11344;SDS011;5727;42.600;23.028;2022-07-22T09:34:00;7.55;;;4.05;;
11344;SDS011;5727;42.600;23.028;2022-07-22T09:36:27;6.10;;;2.25;;
11344;SDS011;5727;42.600;23.028;2022-07-22T09:38:55;5.90;;;2.13;;
11344;SDS011;5727;42.600;23.028;2022-07-22T09:41:22;3.72;;;2.33;;
11344;SDS011;5727;42.600;23.028;2022-07-22T09:43:50;4.90;;;2.50;;
11344;SDS011;5727;42.600;23.028;2022-07-22T09:46:16;7.75;;;2.95;;
11344;SDS011;5727;42.600;23.028;2022-07-22T09:49:01;9.25;;;3.03;;
11344;SDS011;5727;42.600;23.028;2022-07-22T09:51:29;5.55;;;2.58;;
11344;SDS011;5727;42.600;23.028;2022-07-22T09:53:56;5.30;;;2.33;;
11344;SDS011;5727;42.600;23.028;2022-07-22T09:56:24;7.43;;;2.60;;
11344;SDS011;5727;42.600;23.028;2022-07-22T09:58:55;6.35;;;2.65;;
11344;SDS011;5727;42.600;23.028;2022-07-22T10:01:22;4.68;;;2.20;;
11344;SDS011;5727;42.600;23.028;2022-07-22T10:03:52;3.97;;;2.25;;
11344;SDS011;5727;42.600;23.028;2022-07-22T10:06:21;5.18;;;2.33;;
11344;SDS011;5727;42.600;23.028;2022-07-22T10:08:48;4.63;;;2.60;;
11344;SDS011;5727;42.600;23.028;2022-07-22T10:11:18;9.57;;;2.70;;
11344;SDS011;5727;42.600;23.028;2022-07-22T10:13:45;6.18;;;2.60;;
11344;SDS011;5727;42.600;23.028;2022-07-22T10:16:13;5.93;;;2.63;;
11344;SDS011;5727;42.600;23.028;2022-07-22T10:18:44;5.43;;;2.78;;
11344;SDS011;5727;42.600;23.028;2022-07-22T10:21:14;4.13;;;2.58;;
11344;SDS011;5727;42.600;23.028;2022-07-22T10:26:48;7.22;;;2.97;;
11344;SDS011;5727;42.600;23.028;2022-07-22T10:29:26;6.13;;;2.95;;
11344;SDS011;5727;42.600;23.028;2022-07-22T10:35:18;4.10;;;2.40;;
11344;SDS011;5727;42.600;23.028;2022-07-22T10:37:54;5.82;;;2.38;;
11344;SDS011;5727;42.600;23.028;2022-07-22T10:40:27;6.03;;;2.30;;
11344;SDS011;5727;42.600;23.028;2022-07-22T10:43:10;5.72;;;2.90;;
11344;SDS011;5727;42.600;23.028;2022-07-22T10:45:39;5.55;;;2.70;;
11344;SDS011;5727;42.600;23.028;2022-07-22T10:48:09;4.63;;;2.78;;
11344;SDS011;5727;42.600;23.028;2022-07-22T10:50:38;5.00;;;2.35;;
11344;SDS011;5727;42.600;23.028;2022-07-22T10:53:16;3.60;;;2.45;;
11344;SDS011;5727;42.600;23.028;2022-07-22T10:55:58;6.60;;;2.35;;
11344;SDS011;5727;42.600;23.028;2022-07-22T10:58:40;3.75;;;2.50;;
11344;SDS011;5727;42.600;23.028;2022-07-22T11:01:09;7.45;;;2.53;;
11344;SDS011;5727;42.600;23.028;2022-07-22T11:03:38;5.88;;;2.63;;
11344;SDS011;5727;42.600;23.028;2022-07-22T11:06:13;3.95;;;2.03;;
11344;SDS011;5727;42.600;23.028;2022-07-22T11:08:45;4.78;;;2.40;;
11344;SDS011;5727;42.600;23.028;2022-07-22T11:11:13;5.85;;;2.10;;
11344;SDS011;5727;42.600;23.028;2022-07-22T11:13:41;3.38;;;2.67;;
11344;SDS011;5727;42.600;23.028;2022-07-22T11:16:13;4.28;;;2.60;;
11344;SDS011;5727;42.600;23.028;2022-07-22T11:18:44;4.50;;;2.55;;
11344;SDS011;5727;42.600;23.028;2022-07-22T11:21:19;4.38;;;2.03;;
11344;SDS011;5727;42.600;23.028;2022-07-22T11:23:52;4.22;;;2.35;;
11344;SDS011;5727;42.600;23.028;2022-07-22T11:26:24;7.30;;;2.80;;
11344;SDS011;5727;42.600;23.028;2022-07-22T11:28:57;5.68;;;2.33;;
11344;SDS011;5727;42.600;23.028;2022-07-22T11:31:25;7.22;;;2.75;;
11344;SDS011;5727;42.600;23.028;2022-07-22T11:33:56;4.93;;;2.58;;
11344;SDS011;5727;42.600;23.028;2022-07-22T11:36:31;7.72;;;2.60;;
11344;SDS011;5727;42.600;23.028;2022-07-22T11:39:00;5.15;;;2.45;;
11344;SDS011;5727;42.600;23.028;2022-07-22T11:41:28;5.75;;;2.20;;
11344;SDS011;5727;42.600;23.028;2022-07-22T11:43:56;6.82;;;2.30;;
11344;SDS011;5727;42.600;23.028;2022-07-22T11:46:26;5.05;;;2.70;;
11344;SDS011;5727;42.600;23.028;2022-07-22T11:48:55;3.20;;;2.13;;
11344;SDS011;5727;42.600;23.028;2022-07-22T11:51:27;6.18;;;2.03;;
11344;SDS011;5727;42.600;23.028;2022-07-22T11:53:56;6.00;;;2.50;;
11344;SDS011;5727;42.600;23.028;2022-07-22T11:56:25;6.43;;;2.88;;
11344;SDS011;5727;42.600;23.028;2022-07-22T11:58:54;4.35;;;2.20;;
11344;SDS011;5727;42.600;23.028;2022-07-22T12:01:23;3.80;;;1.77;;
11344;SDS011;5727;42.600;23.028;2022-07-22T12:03:51;3.97;;;2.20;;
11344;SDS011;5727;42.600;23.028;2022-07-22T12:06:21;3.88;;;2.08;;
11344;SDS011;5727;42.600;23.028;2022-07-22T12:08:50;5.63;;;2.53;;
11344;SDS011;5727;42.600;23.028;2022-07-22T12:11:20;4.22;;;2.35;;
11344;SDS011;5727;42.600;23.028;2022-07-22T12:13:51;4.68;;;2.10;;
11344;SDS011;5727;42.600;23.028;2022-07-22T12:16:20;7.68;;;2.17;;
11344;SDS011;5727;42.600;23.028;2022-07-22T12:33:50;3.97;;;2.03;;
11344;SDS011;5727;42.600;23.028;2022-07-22T12:36:17;3.15;;;1.75;;
11344;SDS011;5727;42.600;23.028;2022-07-22T12:38:44;5.30;;;2.10;;
11344;SDS011;5727;42.600;23.028;2022-07-22T12:41:28;3.58;;;1.90;;
11344;SDS011;5727;42.600;23.028;2022-07-22T12:43:55;2.60;;;2.00;;
11344;SDS011;5727;42.600;23.028;2022-07-22T12:46:22;7.53;;;2.35;;
11344;SDS011;5727;42.600;23.028;2022-07-22T12:48:51;5.18;;;2.60;;
11344;SDS011;5727;42.600;23.028;2022-07-22T12:51:19;6.28;;;1.80;;
11344;SDS011;5727;42.600;23.028;2022-07-22T12:53:46;5.85;;;2.30;;
11344;SDS011;5727;42.600;23.028;2022-07-22T12:56:13;4.85;;;1.90;;
11344;SDS011;5727;42.600;23.028;2022-07-22T12:58:40;3.15;;;2.00;;
11344;SDS011;5727;42.600;23.028;2022-07-22T13:01:07;3.58;;;1.95;;
11344;SDS011;5727;42.600;23.028;2022-07-22T13:03:34;5.03;;;2.30;;
11344;SDS011;5727;42.600;23.028;2022-07-22T13:06:04;4.53;;;2.70;;
11344;SDS011;5727;42.600;23.028;2022-07-22T13:08:32;6.15;;;2.45;;
11344;SDS011;5727;42.600;23.028;2022-07-22T13:10:59;5.53;;;2.50;;
11344;SDS011;5727;42.600;23.028;2022-07-22T13:13:25;4.75;;;2.72;;
11344;SDS011;5727;42.600;23.028;2022-07-22T13:15:52;4.65;;;2.10;;
11344;SDS011;5727;42.600;23.028;2022-07-22T13:18:19;6.75;;;2.28;;
11344;SDS011;5727;42.600;23.028;2022-07-22T13:20:46;6.65;;;2.30;;
11344;SDS011;5727;42.600;23.028;2022-07-22T13:23:14;5.53;;;2.25;;
11344;SDS011;5727;42.600;23.028;2022-07-22T13:25:41;5.22;;;2.25;;
11344;SDS011;5727;42.600;23.028;2022-07-22T13:28:09;3.40;;;2.05;;
11344;SDS011;5727;42.600;23.028;2022-07-22T13:30:36;4.68;;;2.40;;
11344;SDS011;5727;42.600;23.028;2022-07-22T13:33:02;3.85;;;2.15;;
11344;SDS011;5727;42.600;23.028;2022-07-22T13:35:29;6.13;;;2.45;;
11344;SDS011;5727;42.600;23.028;2022-07-22T13:37:56;7.68;;;2.58;;
11344;SDS011;5727;42.600;23.028;2022-07-22T13:40:25;3.33;;;2.58;;
11344;SDS011;5727;42.600;23.028;2022-07-22T13:42:52;4.72;;;2.70;;
11344;SDS011;5727;42.600;23.028;2022-07-22T13:45:19;6.68;;;2.50;;
11344;SDS011;5727;42.600;23.028;2022-07-22T13:47:46;12.55;;;2.78;;
11344;SDS011;5727;42.600;23.028;2022-07-22T13:50:13;7.25;;;2.53;;
11344;SDS011;5727;42.600;23.028;2022-07-22T13:52:39;5.65;;;2.83;;
11344;SDS011;5727;42.600;23.028;2022-07-22T13:55:07;4.47;;;2.70;;
11344;SDS011;5727;42.600;23.028;2022-07-22T13:57:35;6.28;;;2.80;;
11344;SDS011;5727;42.600;23.028;2022-07-22T14:00:02;6.28;;;2.88;;
11344;SDS011;5727;42.600;23.028;2022-07-22T14:02:30;13.38;;;2.67;;
11344;SDS011;5727;42.600;23.028;2022-07-22T14:04:58;4.85;;;2.22;;
11344;SDS011;5727;42.600;23.028;2022-07-22T14:07:24;6.47;;;2.25;;
11344;SDS011;5727;42.600;23.028;2022-07-22T14:09:51;5.40;;;2.20;;
11344;SDS011;5727;42.600;23.028;2022-07-22T14:12:18;4.63;;;2.30;;
11344;SDS011;5727;42.600;23.028;2022-07-22T14:14:46;7.22;;;2.30;;
11344;SDS011;5727;42.600;23.028;2022-07-22T14:17:13;5.43;;;2.75;;
11344;SDS011;5727;42.600;23.028;2022-07-22T14:19:39;6.50;;;2.80;;
11344;SDS011;5727;42.600;23.028;2022-07-22T14:22:06;7.82;;;2.67;;
11344;SDS011;5727;42.600;23.028;2022-07-22T14:24:33;7.85;;;2.70;;
11344;SDS011;5727;42.600;23.028;2022-07-22T14:27:00;6.30;;;3.20;;
11344;SDS011;5727;42.600;23.028;2022-07-22T14:29:26;5.57;;;2.33;;
11344;SDS011;5727;42.600;23.028;2022-07-22T14:31:54;4.05;;;2.50;;
11344;SDS011;5727;42.600;23.028;2022-07-22T14:34:21;4.57;;;2.67;;
11344;SDS011;5727;42.600;23.028;2022-07-22T14:36:48;2.65;;;2.25;;
11344;SDS011;5727;42.600;23.028;2022-07-22T14:39:15;6.88;;;2.75;;
11344;SDS011;5727;42.600;23.028;2022-07-22T14:41:42;5.10;;;2.40;;
11344;SDS011;5727;42.600;23.028;2022-07-22T14:44:11;5.60;;;2.63;;
11344;SDS011;5727;42.600;23.028;2022-07-22T14:46:38;4.40;;;2.13;;
11344;SDS011;5727;42.600;23.028;2022-07-22T14:49:06;4.28;;;2.63;;
11344;SDS011;5727;42.600;23.028;2022-07-22T14:51:33;5.53;;;2.47;;
11344;SDS011;5727;42.600;23.028;2022-07-22T14:54:00;6.88;;;3.08;;
11344;SDS011;5727;42.600;23.028;2022-07-22T14:56:27;4.97;;;2.58;;
11344;SDS011;5727;42.600;23.028;2022-07-22T14:58:54;4.90;;;2.65;;
11344;SDS011;5727;42.600;23.028;2022-07-22T15:01:20;4.25;;;2.67;;
11344;SDS011;5727;42.600;23.028;2022-07-22T15:03:47;3.50;;;1.85;;
11344;SDS011;5727;42.600;23.028;2022-07-22T15:06:16;5.95;;;2.28;;
11344;SDS011;5727;42.600;23.028;2022-07-22T15:08:42;6.32;;;2.55;;